Time;durP1;ratioP1;P1;durP2;ratioP2;P2;SDS_P1;SDS_P2;PMS_P1;PMS_P2;Temp;Humidity;BMP_temperature;BMP_pressure;BME280_temperature;BME280_humidity;BME280_pressure;Samples;Min_cycle;Max_cycle;Signal;HPM_P1;HPM_P2
2021/04/24 00:00:24;;;;;;;2.03;1.63;;;2.70;99.90;;;;;;5091562;28;20203;-81
2021/04/24 00:02:51;;;;;;;1.60;1.00;;;2.70;99.90;;;;;;5091904;28;20194;-81
2021/04/24 00:05:25;;;;;;;1.07;0.90;;;2.70;99.90;;;;;;5110328;28;20178;-80
2021/04/24 00:07:58;;;;;;;2.87;1.00;;;2.70;99.90;;;;;;5091721;28;20180;-79
2021/04/24 00:10:23;;;;;;;0.77;0.53;;;2.60;99.90;;;;;;5091103;28;20330;-81
2021/04/24 00:12:49;;;;;;;1.30;0.80;;;2.60;99.90;;;;;;5091550;28;20357;-80
2021/04/24 00:15:16;;;;;;;0.77;0.70;;;2.60;99.90;;;;;;5091145;28;20182;-79
2021/04/24 00:17:42;;;;;;;0.87;0.60;;;2.60;99.90;;;;;;5091553;28;20176;-81
2021/04/24 00:20:10;;;;;;;1.13;1.03;;;2.50;99.90;;;;;;5091125;28;20184;-79
2021/04/24 00:22:37;;;;;;;1.47;1.00;;;2.50;99.90;;;;;;5092474;28;20211;-80
2021/04/24 00:25:03;;;;;;;3.00;1.47;;;2.50;99.90;;;;;;5091083;28;20667;-80
2021/04/24 00:27:29;;;;;;;3.43;1.83;;;2.40;99.90;;;;;;5091437;28;20191;-80
2021/04/24 00:29:55;;;;;;;2.57;1.47;;;2.40;99.90;;;;;;5091537;28;20211;-80
2021/04/24 00:32:20;;;;;;;4.87;1.60;;;2.30;99.90;;;;;;5091259;28;20176;-80
2021/04/24 00:34:46;;;;;;;1.77;1.40;;;2.30;99.90;;;;;;5108689;28;20207;-82
2021/04/24 00:37:12;;;;;;;2.17;1.40;;;2.30;99.90;;;;;;5089891;27;20191;-80
2021/04/24 00:39:38;;;;;;;2.37;0.93;;;2.30;99.90;;;;;;5089788;28;20259;-80
2021/04/24 00:42:03;;;;;;;1.53;1.17;;;2.30;99.90;;;;;;5090179;27;20271;-79
2021/04/24 00:44:29;;;;;;;1.47;0.83;;;2.40;99.90;;;;;;5087107;28;20187;-80
2021/04/24 00:46:55;;;;;;;2.97;1.47;;;2.30;99.90;;;;;;5090816;27;20275;-82
2021/04/24 00:49:20;;;;;;;2.03;1.60;;;2.20;99.90;;;;;;5086207;28;20930;-81
2021/04/24 00:51:46;;;;;;;2.20;0.83;;;2.30;99.90;;;;;;5087857;28;20292;-81
2021/04/24 00:54:11;;;;;;;1.63;1.33;;;2.30;99.90;;;;;;5090205;28;20184;-79
2021/04/24 00:56:38;;;;;;;1.87;0.80;;;2.30;99.90;;;;;;5089746;28;20212;-81
2021/04/24 00:59:03;;;;;;;2.23;1.37;;;2.20;99.90;;;;;;5090184;28;20190;-81
2021/04/24 01:01:29;;;;;;;2.77;1.73;;;2.10;99.90;;;;;;5090022;28;20200;-81
2021/04/24 01:03:56;;;;;;;1.10;0.97;;;2.20;99.90;;;;;;5108476;27;20184;-81
2021/04/24 01:06:21;;;;;;;1.13;1.03;;;2.10;99.90;;;;;;5089047;28;20193;-80
2021/04/24 01:08:47;;;;;;;2.30;0.67;;;2.20;99.90;;;;;;5090469;28;20280;-80
2021/04/24 01:11:13;;;;;;;1.53;1.20;;;2.20;99.90;;;;;;5107824;28;20658;-80
2021/04/24 01:13:38;;;;;;;1.27;0.83;;;2.20;99.90;;;;;;5089658;28;20915;-80
2021/04/24 01:16:04;;;;;;;1.30;1.00;;;2.30;99.90;;;;;;5090715;28;20234;-79
2021/04/24 01:18:30;;;;;;;2.03;1.03;;;2.30;99.90;;;;;;5091458;28;20391;-80
2021/04/24 01:20:57;;;;;;;3.17;1.27;;;2.30;99.90;;;;;;5090725;28;20208;-81
2021/04/24 01:23:24;;;;;;;2.63;1.67;;;2.30;99.90;;;;;;5093366;28;20181;-83
2021/04/24 01:25:49;;;;;;;2.40;1.53;;;2.40;99.90;;;;;;5089948;28;20195;-82
2021/04/24 01:28:15;;;;;;;1.47;1.00;;;2.30;99.90;;;;;;5090095;28;20193;-78
2021/04/24 01:30:44;;;;;;;1.93;1.00;;;2.30;99.90;;;;;;5107611;28;20768;-81
2021/04/24 01:33:11;;;;;;;3.13;1.40;;;2.40;99.90;;;;;;5089961;28;20211;-79
2021/04/24 01:35:40;;;;;;;1.30;1.03;;;2.30;99.90;;;;;;5088548;28;20180;-79
2021/04/24 01:38:06;;;;;;;1.33;1.10;;;2.40;99.90;;;;;;5089725;27;20212;-81
2021/04/24 01:40:33;;;;;;;1.27;0.97;;;2.30;99.90;;;;;;5089620;28;20522;-79
2021/04/24 01:42:59;;;;;;;3.87;1.17;;;2.30;99.90;;;;;;5107782;28;20192;-83
2021/04/24 01:45:25;;;;;;;2.53;1.57;;;2.40;99.90;;;;;;5107076;28;20199;-82
2021/04/24 01:47:52;;;;;;;3.03;1.63;;;2.40;99.90;;;;;;5089486;28;20612;-81
2021/04/24 01:50:27;;;;;;;2.27;1.00;;;2.40;99.90;;;;;;5087859;27;20219;-82
2021/04/24 01:52:54;;;;;;;1.50;1.33;;;2.30;99.90;;;;;;5089417;27;20184;-80
2021/04/24 01:55:28;;;;;;;1.47;1.07;;;2.20;99.90;;;;;;5089280;28;20188;-81
2021/04/24 01:57:56;;;;;;;1.60;1.00;;;2.20;99.90;;;;;;5108681;27;20183;-79
2021/04/24 02:00:24;;;;;;;2.43;1.10;;;2.20;99.90;;;;;;5105383;28;20212;-81
2021/04/24 02:02:51;;;;;;;1.80;1.17;;;2.20;99.90;;;;;;5088962;28;20192;-82
2021/04/24 02:05:18;;;;;;;2.83;1.67;;;2.20;99.90;;;;;;5088188;28;20180;-81
2021/04/24 02:08:13;;;;;;;2.63;1.37;;;2.10;99.90;;;;;;5107633;28;20694;-82
2021/04/24 02:10:40;;;;;;;1.57;1.27;;;2.10;99.90;;;;;;5107043;28;20230;-82
2021/04/24 02:13:16;;;;;;;1.40;1.07;;;2.20;99.90;;;;;;5108569;27;20189;-83
2021/04/24 02:15:42;;;;;;;3.00;1.37;;;2.20;99.90;;;;;;5107798;28;20187;-80
2021/04/24 02:18:08;;;;;;;3.97;1.40;;;2.20;99.90;;;;;;5089465;28;20184;-81
2021/04/24 02:20:36;;;;;;;1.90;1.47;;;2.10;99.90;;;;;;5088694;28;20235;-79
2021/04/24 02:23:02;;;;;;;2.33;1.10;;;2.10;99.90;;;;;;5088890;28;20211;-81
2021/04/24 02:25:28;;;;;;;1.73;1.60;;;2.10;99.90;;;;;;5087935;28;20188;-81
2021/04/24 02:27:55;;;;;;;1.27;0.80;;;2.00;99.90;;;;;;5107277;27;20555;-79
2021/04/24 02:30:21;;;;;;;2.30;1.50;;;2.10;99.90;;;;;;5088289;28;20208;-82
2021/04/24 02:32:48;;;;;;;2.33;1.17;;;2.00;99.90;;;;;;5088596;28;20192;-80
2021/04/24 02:35:18;;;;;;;3.77;1.33;;;2.00;99.90;;;;;;5107236;27;20168;-80
2021/04/24 02:37:44;;;;;;;2.73;1.77;;;1.90;99.90;;;;;;5089504;28;20512;-82
2021/04/24 02:40:20;;;;;;;1.50;1.33;;;1.80;99.90;;;;;;5107278;28;20275;-81
2021/04/24 02:42:46;;;;;;;1.60;1.43;;;1.80;99.90;;;;;;5088853;28;20661;-81
2021/04/24 02:45:13;;;;;;;3.70;1.53;;;1.70;99.90;;;;;;5088441;28;20191;-79
2021/04/24 02:47:39;;;;;;;1.60;1.00;;;1.90;99.90;;;;;;5106922;28;20263;-78
2021/04/24 02:50:07;;;;;;;3.90;1.50;;;1.90;99.90;;;;;;5089018;28;20200;-80
2021/04/24 02:52:33;;;;;;;1.57;0.90;;;1.90;99.90;;;;;;5106702;28;20172;-81
2021/04/24 02:54:59;;;;;;;4.10;1.20;;;1.80;99.90;;;;;;5088774;28;20219;-80
2021/04/24 02:57:25;;;;;;;1.67;1.13;;;1.80;99.90;;;;;;5089421;28;20184;-80
2021/04/24 02:59:50;;;;;;;2.03;1.53;;;1.90;99.90;;;;;;5088771;28;20191;-79
2021/04/24 03:02:16;;;;;;;1.80;1.20;;;1.80;99.90;;;;;;5088403;28;20203;-82
2021/04/24 03:04:43;;;;;;;4.20;1.27;;;1.60;99.90;;;;;;5085825;28;20559;-81
2021/04/24 03:07:08;;;;;;;2.70;1.60;;;1.60;99.90;;;;;;5106437;28;20184;-80
2021/04/24 03:09:34;;;;;;;2.47;1.30;;;1.40;99.90;;;;;;5088429;28;20207;-80
2021/04/24 03:12:00;;;;;;;1.70;0.80;;;1.40;99.90;;;;;;5110147;28;20200;-82
2021/04/24 03:14:25;;;;;;;1.80;1.40;;;1.50;99.90;;;;;;5084954;28;20527;-80
2021/04/24 03:16:51;;;;;;;2.90;1.60;;;;;;;;;;5105970;28;20180;-80
2021/04/24 03:19:17;;;;;;;1.97;1.33;;;1.40;99.90;;;;;;5107139;28;20184;-82
2021/04/24 03:21:42;;;;;;;5.63;1.83;;;1.40;99.90;;;;;;5087887;28;20215;-78
2021/04/24 03:24:09;;;;;;;2.13;1.10;;;1.30;99.90;;;;;;5089054;28;20184;-81
2021/04/24 03:26:35;;;;;;;1.63;1.00;;;1.30;99.90;;;;;;5088216;28;20192;-80
2021/04/24 03:29:01;;;;;;;2.63;1.27;;;1.20;99.90;;;;;;5087215;28;20180;-80
2021/04/24 03:31:26;;;;;;;3.63;1.47;;;1.10;99.90;;;;;;5105974;28;20204;-80
2021/04/24 03:33:52;;;;;;;1.77;1.23;;;1.30;99.90;;;;;;5106565;28;20566;-81
2021/04/24 03:36:18;;;;;;;1.67;1.30;;;1.20;99.90;;;;;;5105401;28;20766;-81
2021/04/24 03:38:44;;;;;;;1.90;1.30;;;1.20;99.90;;;;;;5106833;28;20207;-82
2021/04/24 03:41:10;;;;;;;1.57;1.10;;;1.20;99.90;;;;;;5106615;28;20196;-81
2021/04/24 03:43:37;;;;;;;1.53;1.43;;;1.20;99.90;;;;;;5088485;28;20185;-81
2021/04/24 03:46:03;;;;;;;2.40;1.43;;;1.20;99.90;;;;;;5088040;28;20184;-82
2021/04/24 03:48:29;;;;;;;1.57;1.07;;;1.30;99.90;;;;;;5088089;28;20299;-81
2021/04/24 03:50:55;;;;;;;4.53;1.83;;;1.40;99.90;;;;;;5087969;28;20298;-79
2021/04/24 03:53:20;;;;;;;1.77;1.13;;;1.50;99.90;;;;;;5106922;28;20751;-82
2021/04/24 03:55:46;;;;;;;3.17;1.37;;;1.60;99.90;;;;;;5088039;28;20180;-79
2021/04/24 03:58:12;;;;;;;2.83;1.47;;;1.70;99.90;;;;;;5088629;28;20191;-82
2021/04/24 04:00:39;;;;;;;3.07;1.90;;;1.80;99.90;;;;;;5087646;28;20632;-81
2021/04/24 04:03:07;;;;;;;1.83;1.00;;;1.90;99.90;;;;;;5084407;28;20281;-82
2021/04/24 04:05:41;;;;;;;5.40;1.77;;;2.20;99.90;;;;;;5088257;28;20259;-81
2021/04/24 04:08:10;;;;;;;1.27;1.13;;;2.10;99.90;;;;;;5085776;28;20194;-81
2021/04/24 04:10:37;;;;;;;1.40;1.30;;;2.20;99.90;;;;;;5107502;28;20212;-80
2021/04/24 04:13:04;;;;;;;1.30;0.87;;;2.20;99.90;;;;;;5107657;28;20611;-82
2021/04/24 04:15:30;;;;;;;3.07;1.60;;;2.10;99.90;;;;;;5091595;28;20331;-82
2021/04/24 04:18:14;;;;;;;1.33;1.10;;;1.90;99.90;;;;;;5097446;27;20283;-78
2021/04/24 04:20:50;;;;;;;1.57;1.07;;;1.80;99.90;;;;;;5099663;28;20204;-81
2021/04/24 04:23:16;;;;;;;2.57;1.37;;;1.80;99.90;;;;;;5088968;28;21151;-81
2021/04/24 04:25:43;;;;;;;2.97;1.30;;;1.90;99.90;;;;;;5095837;28;20613;-80
2021/04/24 04:28:09;;;;;;;1.93;1.00;;;2.00;99.90;;;;;;5113899;27;20268;-82
2021/04/24 04:30:36;;;;;;;1.70;1.33;;;2.10;99.90;;;;;;5091289;28;20208;-82
2021/04/24 04:33:04;;;;;;;1.90;1.40;;;2.10;99.90;;;;;;5092338;27;20184;-82
2021/04/24 04:35:30;;;;;;;2.73;1.70;;;2.40;99.90;;;;;;5091570;28;20181;-83
2021/04/24 04:37:56;;;;;;;1.27;0.83;;;2.40;99.90;;;;;;5092156;28;20180;-83
2021/04/24 04:40:22;;;;;;;1.83;1.27;;;2.50;99.90;;;;;;5091814;28;20290;-82
2021/04/24 04:42:48;;;;;;;2.00;1.50;;;2.50;99.90;;;;;;5091928;28;20658;-82
2021/04/24 04:45:15;;;;;;;1.67;1.23;;;2.60;99.90;;;;;;5092016;28;20191;-83
2021/04/24 04:47:41;;;;;;;1.33;0.97;;;2.70;99.90;;;;;;5109694;27;20184;-82
2021/04/24 04:50:10;;;;;;;1.87;1.50;;;2.70;99.90;;;;;;5091871;27;20208;-83
2021/04/24 04:52:36;;;;;;;2.10;1.53;;;2.80;99.90;;;;;;5109733;28;20629;-82
2021/04/24 04:55:04;;;;;;;3.17;1.87;;;2.90;99.90;;;;;;5109310;27;20180;-81
2021/04/24 04:57:30;;;;;;;2.33;1.67;;;3.00;99.90;;;;;;5091182;28;20268;-82
2021/04/24 04:59:55;;;;;;;3.83;1.83;;;3.00;99.90;;;;;;5091643;28;20204;-82
2021/04/24 05:02:21;;;;;;;3.80;1.87;;;3.10;99.90;;;;;;5108929;27;20671;-83
2021/04/24 05:04:47;;;;;;;2.93;1.50;;;3.20;99.90;;;;;;5090903;28;20184;-81
2021/04/24 05:07:13;;;;;;;4.40;1.70;;;3.20;99.90;;;;;;5113171;28;20175;-80
2021/04/24 05:09:39;;;;;;;3.93;2.30;;;3.20;99.90;;;;;;5096617;28;20571;-81
2021/04/24 05:12:05;;;;;;;3.27;1.80;;;3.20;99.90;;;;;;5113787;27;20204;-81
2021/04/24 05:14:31;;;;;;;3.37;2.10;;;3.30;99.90;;;;;;5095458;28;20189;-80
2021/04/24 05:16:57;;;;;;;3.43;1.87;;;3.40;99.90;;;;;;5094426;28;20180;-82
2021/04/24 05:19:23;;;;;;;3.37;2.23;;;3.50;99.90;;;;;;5091355;28;20206;-79
2021/04/24 05:21:49;;;;;;;2.77;2.20;;;3.50;99.90;;;;;;5093821;28;20199;-80
2021/04/24 05:24:14;;;;;;;4.53;2.20;;;3.80;99.90;;;;;;5093820;28;20212;-80
2021/04/24 05:26:40;;;;;;;5.53;2.40;;;4.40;99.90;;;;;;5112355;28;20180;-80
2021/04/24 05:29:06;;;;;;;5.03;2.17;;;5.10;99.90;;;;;;5093073;28;20188;-80
2021/04/24 05:31:32;;;;;;;3.73;2.07;;;5.70;99.90;;;;;;5092951;28;20261;-80
2021/04/24 05:33:57;;;;;;;3.50;2.50;;;6.40;99.90;;;;;;5112270;28;20213;-80
2021/04/24 05:36:24;;;;;;;4.80;2.30;;;6.70;99.90;;;;;;5092691;28;21067;-82
2021/04/24 05:38:51;;;;;;;3.83;2.10;;;7.00;99.90;;;;;;5092046;28;20180;-81
2021/04/24 05:41:21;;;;;;;3.17;1.80;;;7.40;99.90;;;;;;5110154;28;20273;-83
2021/04/24 05:43:54;;;;;;;2.57;2.13;;;8.00;99.90;;;;;;5088910;28;20191;-82
2021/04/24 05:46:20;;;;;;;3.13;2.00;;;8.80;99.90;;;;;;5092239;28;20176;-81
2021/04/24 05:48:47;;;;;;;4.47;2.37;;;9.40;99.90;;;;;;5110159;27;20200;-80
2021/04/24 05:51:12;;;;;;;4.63;2.70;;;9.50;99.90;;;;;;5110457;28;20222;-81
2021/04/24 05:53:39;;;;;;;3.30;2.20;;;9.50;99.90;;;;;;5091773;28;20259;-82
2021/04/24 05:56:05;;;;;;;4.70;2.40;;;9.30;99.90;;;;;;5091597;27;20184;-81
2021/04/24 05:58:31;;;;;;;4.67;2.47;;;9.40;99.90;;;;;;5092794;28;20172;-80
2021/04/24 06:00:57;;;;;;;4.00;1.77;;;9.60;99.90;;;;;;5110294;28;20211;-83
2021/04/24 06:03:22;;;;;;;10.60;2.80;;;9.70;99.90;;;;;;5092404;28;20829;-82
2021/04/24 06:05:48;;;;;;;4.87;2.40;;;10.20;99.90;;;;;;5091547;28;20633;-81
2021/04/24 06:08:14;;;;;;;4.10;2.80;;;10.60;99.90;;;;;;5112025;27;20183;-81
2021/04/24 06:10:40;;;;;;;4.38;1.98;;;10.70;99.90;;;;;;5110798;28;20779;-81
2021/04/24 06:13:05;;;;;;;3.88;2.20;;;10.90;99.90;;;;;;5112228;27;20215;-80
2021/04/24 06:15:31;;;;;;;3.50;2.15;;;10.90;99.90;;;;;;5091898;28;20650;-83
2021/04/24 06:17:57;;;;;;;4.65;2.35;;;11.20;99.90;;;;;;5092740;27;20188;-82
2021/04/24 06:20:22;;;;;;;3.65;2.53;;;11.40;99.90;;;;;;5110792;28;20636;-81
2021/04/24 06:22:48;;;;;;;3.00;2.47;;;10.90;99.90;;;;;;5110567;27;20184;-80
2021/04/24 06:25:16;;;;;;;3.08;2.38;;;11.00;99.90;;;;;;5110902;28;20178;-83
2021/04/24 06:27:42;;;;;;;3.38;2.30;;;11.00;99.90;;;;;;5091795;28;20199;-82
2021/04/24 06:30:10;;;;;;;6.70;2.35;;;11.20;99.90;;;;;;5110640;27;21168;-81
2021/04/24 06:32:36;;;;;;;2.75;2.25;;;11.20;99.90;;;;;;5092141;28;20172;-81
2021/04/24 06:35:03;;;;;;;3.53;2.13;;;11.10;99.90;;;;;;5110314;27;20187;-82
2021/04/24 06:37:29;;;;;;;4.80;2.17;;;10.60;99.90;;;;;;5109755;27;20203;-80
2021/04/24 06:39:54;;;;;;;2.80;1.93;;;10.30;99.90;;;;;;5092210;28;20653;-81
2021/04/24 06:42:20;;;;;;;5.90;2.57;;;10.00;99.90;;;;;;5110349;28;20180;-82
2021/04/24 06:44:46;;;;;;;3.53;2.17;;;9.50;99.90;;;;;;5110665;28;20199;-81
2021/04/24 06:47:12;;;;;;;3.50;2.47;;;8.90;99.90;;;;;;5111633;27;20191;-78
2021/04/24 06:49:38;;;;;;;4.33;2.53;;;8.70;99.90;;;;;;5115143;28;20264;-78
2021/04/24 06:52:05;;;;;;;4.90;2.47;;;8.60;99.90;;;;;;5091435;28;20196;-78
2021/04/24 06:54:31;;;;;;;3.17;1.70;;;8.50;99.90;;;;;;5088251;28;20173;-77
2021/04/24 06:56:56;;;;;;;3.03;2.10;;;8.70;99.90;;;;;;5105784;28;20188;-77
2021/04/24 06:59:22;;;;;;;3.17;2.43;;;8.80;99.90;;;;;;5106176;28;20184;-77
2021/04/24 07:01:47;;;;;;;2.87;2.20;;;9.00;99.90;;;;;;5106394;28;20239;-77
2021/04/24 07:04:13;;;;;;;2.80;2.10;;;9.20;99.90;;;;;;5094067;28;20244;-78
2021/04/24 07:06:39;;;;;;;3.43;2.00;;;9.20;99.90;;;;;;5097973;28;20244;-78
2021/04/24 07:09:05;;;;;;;2.80;1.57;;;9.30;99.90;;;;;;5115950;28;20655;-78
2021/04/24 07:11:30;;;;;;;5.90;2.07;;;9.10;99.90;;;;;;5115431;28;20223;-78
2021/04/24 07:13:56;;;;;;;2.57;2.07;;;9.10;99.90;;;;;;5115543;28;20172;-77
2021/04/24 07:16:21;;;;;;;4.50;2.00;;;9.20;99.90;;;;;;5112585;28;20172;-78
2021/04/24 07:18:47;;;;;;;9.33;2.60;;;9.40;99.90;;;;;;5091839;28;20188;-78
2021/04/24 07:21:13;;;;;;;2.83;1.77;;;9.40;99.90;;;;;;5111670;28;20794;-77
2021/04/24 07:23:40;;;;;;;3.77;1.90;;;9.20;99.90;;;;;;5113889;28;20267;-76
2021/04/24 07:26:08;;;;;;;2.53;1.83;;;9.30;99.90;;;;;;5095765;28;20697;-79
2021/04/24 07:28:34;;;;;;;2.57;1.70;;;9.70;99.90;;;;;;5114493;28;20213;-78
2021/04/24 07:30:59;;;;;;;2.70;1.80;;;9.70;99.90;;;;;;5115318;28;20643;-78
2021/04/24 07:33:25;;;;;;;2.33;1.73;;;9.40;99.90;;;;;;5115577;28;20181;-77
2021/04/24 07:35:51;;;;;;;3.03;1.80;;;9.30;99.90;;;;;;5115870;28;20257;-78
2021/04/24 07:38:17;;;;;;;4.70;2.00;;;9.20;99.90;;;;;;5115261;28;20674;-78
2021/04/24 07:40:43;;;;;;;3.23;1.40;;;9.40;99.90;;;;;;5096462;28;20298;-78
2021/04/24 07:43:09;;;;;;;2.63;1.70;;;9.50;99.90;;;;;;5115276;28;20604;-79
2021/04/24 07:45:35;;;;;;;1.90;0.97;;;9.50;99.90;;;;;;5115460;28;20221;-78
2021/04/24 07:48:00;;;;;;;2.57;1.37;;;9.50;99.90;;;;;;5097056;28;20199;-78
2021/04/24 07:50:26;;;;;;;4.07;1.60;;;9.40;99.90;;;;;;5098344;28;20241;-78
2021/04/24 07:52:52;;;;;;;2.17;1.30;;;9.10;99.90;;;;;;5099010;28;20442;-77
2021/04/24 07:55:17;;;;;;;1.70;1.20;;;9.10;99.90;;;;;;5116439;27;20775;-79
2021/04/24 07:57:43;;;;;;;3.47;1.53;;;9.10;99.90;;;;;;5099045;28;20176;-80
2021/04/24 08:00:09;;;;;;;2.03;1.60;;;9.40;99.90;;;;;;5112717;28;20184;-79
2021/04/24 08:02:35;;;;;;;4.97;1.70;;;9.40;99.90;;;;;;5111205;27;20268;-76
2021/04/24 08:05:02;;;;;;;4.53;1.83;;;9.30;99.90;;;;;;5109761;28;20220;-77
2021/04/24 08:07:28;;;;;;;5.73;1.60;;;9.10;99.90;;;;;;5108816;27;20177;-76
2021/04/24 08:09:53;;;;;;;1.50;1.20;;;9.00;99.90;;;;;;5089845;28;20204;-80
2021/04/24 08:12:20;;;;;;;1.60;1.30;;;8.90;99.90;;;;;;5111243;28;20179;-80
2021/04/24 08:14:45;;;;;;;1.93;1.10;;;8.90;99.90;;;;;;5091154;28;20172;-79
2021/04/24 08:17:13;;;;;;;2.97;1.53;;;9.10;99.90;;;;;;5111274;27;20256;-82
2021/04/24 08:19:38;;;;;;;1.53;1.30;;;9.40;99.90;;;;;;5109582;28;20181;-76
2021/04/24 08:22:06;;;;;;;2.03;1.10;;;9.60;99.90;;;;;;5112554;27;20196;-80
2021/04/24 08:24:32;;;;;;;1.23;1.13;;;9.60;99.90;;;;;;5091395;28;20729;-82
2021/04/24 08:26:58;;;;;;;3.27;1.43;;;9.60;99.90;;;;;;5111212;27;20192;-80
2021/04/24 08:29:24;;;;;;;3.60;2.07;;;9.60;99.90;;;;;;5113551;27;20226;-80
2021/04/24 08:31:49;;;;;;;1.47;1.20;;;9.60;99.90;;;;;;5111905;27;20270;-81
2021/04/24 08:34:17;;;;;;;1.57;1.33;;;9.80;99.90;;;;;;5090613;28;20180;-81
2021/04/24 08:36:42;;;;;;;1.47;1.10;;;9.90;99.90;;;;;;5091000;28;20183;-82
2021/04/24 08:39:08;;;;;;;2.37;1.10;;;10.10;99.90;;;;;;5110406;27;20176;-82
2021/04/24 08:41:34;;;;;;;2.20;1.10;;;10.30;99.90;;;;;;5091316;28;20227;-83
2021/04/24 08:44:00;;;;;;;2.10;1.20;;;10.40;99.90;;;;;;5091212;28;20187;-82
2021/04/24 08:46:27;;;;;;;1.13;0.90;;;10.30;99.90;;;;;;5091671;28;20176;-82
2021/04/24 08:48:54;;;;;;;1.47;0.70;;;10.30;99.90;;;;;;5090158;27;20196;-82
2021/04/24 08:51:21;;;;;;;1.80;1.03;;;10.50;99.90;;;;;;5083051;28;20208;-75
2021/04/24 08:53:48;;;;;;;2.83;1.07;;;10.70;99.90;;;;;;5109003;27;20233;-81
2021/04/24 08:56:13;;;;;;;1.43;1.07;;;10.50;99.90;;;;;;5090874;27;20183;-81
2021/04/24 08:58:39;;;;;;;1.33;1.20;;;10.30;99.90;;;;;;5108696;28;20180;-81
2021/04/24 09:01:05;;;;;;;1.33;1.10;;;10.20;99.90;;;;;;5090538;27;20215;-81
2021/04/24 09:03:31;;;;;;;1.03;0.90;;;10.20;99.90;;;;;;5108214;27;20188;-80
2021/04/24 09:05:56;;;;;;;1.70;0.70;;;10.10;99.90;;;;;;5090668;28;20191;-79
2021/04/24 09:08:27;;;;;;;1.07;0.90;;;10.10;99.90;;;;;;5090507;28;20184;-80
2021/04/24 09:10:55;;;;;;;2.67;1.80;;;10.00;99.90;;;;;;5107259;27;20216;-78
2021/04/24 09:13:24;;;;;;;2.07;1.80;;;10.00;99.90;;;;;;5091075;28;20195;-79
2021/04/24 09:15:50;;;;;;;1.83;1.50;;;10.10;99.90;;;;;;5108624;28;20175;-78
2021/04/24 09:18:17;;;;;;;1.40;1.10;;;10.30;99.90;;;;;;5109208;27;20672;-80
2021/04/24 09:20:57;;;;;;;2.53;1.47;;;10.10;99.90;;;;;;5108530;28;20229;-80
2021/04/24 09:23:34;;;;;;;2.70;1.47;;;9.90;99.90;;;;;;5090675;28;20275;-80
2021/04/24 09:26:09;;;;;;;2.67;1.00;;;9.70;99.90;;;;;;5092673;27;20237;-82
2021/04/24 09:28:39;;;;;;;1.77;1.67;;;9.50;99.90;;;;;;5094484;28;20180;-81
2021/04/24 09:31:16;;;;;;;1.80;1.20;;;9.50;99.90;;;;;;5092185;27;20208;-81
2021/04/24 09:33:43;;;;;;;2.57;1.30;;;9.50;99.90;;;;;;5112797;28;20179;-80
2021/04/24 09:36:13;;;;;;;1.67;1.27;;;9.60;99.90;;;;;;5113424;27;20180;-79
2021/04/24 09:38:41;;;;;;;3.43;2.03;;;9.80;99.90;;;;;;5093059;28;20497;-79
2021/04/24 09:41:25;;;;;;;1.53;1.00;;;10.10;99.90;;;;;;5112574;27;20255;-80
2021/04/24 09:44:07;;;;;;;1.40;1.17;;;10.20;99.90;;;;;;5093853;28;20195;-79
2021/04/24 09:46:48;;;;;;;1.53;1.07;;;10.10;99.90;;;;;;5093578;28;20184;-79
2021/04/24 09:49:30;;;;;;;1.53;0.90;;;10.10;99.90;;;;;;5093961;28;20200;-79
2021/04/24 09:52:00;;;;;;;1.73;0.97;;;10.20;99.90;;;;;;5093688;28;20619;-79
2021/04/24 09:54:38;;;;;;;1.30;0.80;;;10.50;99.90;;;;;;5093908;28;20176;-80
2021/04/24 09:57:08;;;;;;;1.03;0.80;;;10.60;99.90;;;;;;5093945;28;20185;-80
2021/04/24 10:00:05;;;;;;;3.77;1.10;;;10.90;99.90;;;;;;5092922;28;20221;-80
2021/04/24 10:02:35;;;;;;;1.30;1.20;;;11.30;99.90;;;;;;5093152;28;20191;-78
2021/04/24 10:05:11;;;;;;;0.93;0.90;;;11.50;99.90;;;;;;5110974;27;20188;-80
2021/04/24 10:07:51;;;;;;;1.00;0.90;;;11.70;99.90;;;;;;5092142;28;20203;-76
2021/04/24 10:10:29;;;;;;;2.37;1.07;;;11.60;99.90;;;;;;5108130;28;20211;-76
2021/04/24 10:13:04;;;;;;;2.50;1.00;;;11.70;99.90;;;;;;5106966;27;20653;-76
2021/04/24 10:15:44;;;;;;;1.23;1.00;;;11.90;99.90;;;;;;5106789;28;20251;-78
2021/04/24 10:18:12;;;;;;;1.23;0.63;;;12.10;99.90;;;;;;5108059;27;21210;-81
2021/04/24 10:20:39;;;;;;;2.70;1.03;;;12.30;99.90;;;;;;5090021;28;20200;-80
2021/04/24 10:23:07;;;;;;;1.03;0.90;;;12.10;99.90;;;;;;5109825;27;20220;-81
2021/04/24 10:25:34;;;;;;;0.93;0.93;;;12.00;99.90;;;;;;5109493;28;21128;-80
2021/04/24 10:27:59;;;;;;;1.77;1.00;;;11.90;99.90;;;;;;5110019;27;20180;-81
2021/04/24 10:30:26;;;;;;;1.47;1.30;;;11.80;99.90;;;;;;5109140;27;20242;-81
2021/04/24 10:32:55;;;;;;;0.87;0.83;;;12.10;99.90;;;;;;5110064;28;20180;-80
2021/04/24 10:35:21;;;;;;;1.43;0.90;;;12.40;99.90;;;;;;5090902;28;20239;-81
2021/04/24 10:37:49;;;;;;;2.90;1.50;;;12.60;99.90;;;;;;5091355;28;20284;-81
2021/04/24 10:40:16;;;;;;;2.37;1.17;;;12.50;99.90;;;;;;5109284;27;20208;-80
2021/04/24 10:42:44;;;;;;;1.23;1.10;;;12.40;99.90;;;;;;5091737;28;20176;-80
2021/04/24 10:45:11;;;;;;;1.83;1.00;;;12.50;99.90;;;;;;5108819;28;20203;-80
2021/04/24 10:47:52;;;;;;;1.67;1.03;;;12.40;99.90;;;;;;5091025;28;20210;-81
2021/04/24 10:50:22;;;;;;;1.43;0.97;;;12.70;99.90;;;;;;5090488;28;20203;-81
2021/04/24 10:52:48;;;;;;;1.67;1.07;;;12.60;99.90;;;;;;5109558;28;20172;-82
2021/04/24 10:55:14;;;;;;;1.90;1.57;;;12.30;99.90;;;;;;5109184;28;20180;-80
2021/04/24 10:57:39;;;;;;;1.30;1.10;;;12.80;99.90;;;;;;5109659;28;20180;-81
2021/04/24 11:00:07;;;;;;;1.13;1.00;;;13.10;99.90;;;;;;5108394;28;20184;-80
2021/04/24 11:02:56;;;;;;;2.63;1.47;;;12.40;99.90;;;;;;5090008;28;20548;-80
2021/04/24 11:05:30;;;;;;;2.30;1.40;;;12.00;99.90;;;;;;5090067;28;20176;-82
2021/04/24 11:08:20;;;;;;;2.73;1.53;;;11.80;99.90;;;;;;5088858;28;20179;-83
2021/04/24 11:10:54;;;;;;;1.20;0.93;;;11.90;99.90;;;;;;5106458;28;20208;-83
2021/04/24 11:13:21;;;;;;;1.40;1.30;;;11.60;99.90;;;;;;5087953;28;20169;-82
2021/04/24 11:15:47;;;;;;;1.30;0.93;;;11.60;99.90;;;;;;5106400;28;20184;-82
2021/04/24 11:18:13;;;;;;;0.63;0.63;;;11.80;99.90;;;;;;5106630;28;20180;-83
2021/04/24 11:20:58;;;;;;;4.03;1.20;;;12.50;99.90;;;;;;5108539;28;20196;-82
2021/04/24 11:23:29;;;;;;;2.80;1.37;;;12.60;99.90;;;;;;5111848;27;20225;-80
2021/04/24 11:25:59;;;;;;;2.03;1.27;;;12.50;99.90;;;;;;5112382;27;20179;-81
2021/04/24 11:28:25;;;;;;;1.77;1.53;;;12.50;99.90;;;;;;5093615;28;20172;-81
2021/04/24 11:30:58;;;;;;;3.23;1.43;;;12.50;99.90;;;;;;5093689;28;20770;-79
2021/04/24 11:33:39;;;;;;;2.33;1.80;;;13.00;99.90;;;;;;5094104;28;20173;-78
2021/04/24 11:36:16;;;;;;;1.35;1.02;;;13.40;99.90;;;;;;5112162;28;20176;-78
2021/04/24 11:38:57;;;;;;;1.10;1.00;;;13.50;98.60;;;;;;5097067;28;20252;-78
2021/04/24 11:41:34;;;;;;;2.95;1.50;;;13.50;98.10;;;;;;5095890;28;20208;-77
2021/04/24 11:44:23;;;;;;;1.10;1.00;;;13.20;98.50;;;;;;5095819;28;20190;-79
2021/04/24 11:46:55;;;;;;;1.98;1.13;;;13.10;98.70;;;;;;5113284;27;20544;-78
2021/04/24 11:49:21;;;;;;;1.27;1.00;;;13.10;97.60;;;;;;5111431;27;20191;-77
2021/04/24 11:51:58;;;;;;;1.35;1.02;;;13.50;95.50;;;;;;5093965;28;20200;-76
2021/04/24 11:54:33;;;;;;;2.38;1.30;;;14.00;94.90;;;;;;5113056;27;20228;-78
2021/04/24 11:57:02;;;;;;;1.17;1.02;;;14.50;94.20;;;;;;5117173;27;20661;-77
2021/04/24 11:59:33;;;;;;;1.20;1.10;;;14.30;92.60;;;;;;5113822;27;20176;-78
2021/04/24 12:02:02;;;;;;;2.97;1.20;;;14.10;94.10;;;;;;5095000;27;20882;-77
2021/04/24 12:04:33;;;;;;;2.28;1.40;;;14.00;95.00;;;;;;5112753;27;20181;-78
2021/04/24 12:07:13;;;;;;;2.25;1.55;;;14.00;95.10;;;;;;5113501;27;20184;-78
2021/04/24 12:09:49;;;;;;;2.38;1.42;;;14.00;94.90;;;;;;5112442;27;20274;-78
2021/04/24 12:12:17;;;;;;;1.85;1.27;;;13.70;94.60;;;;;;5113005;27;20203;-78
2021/04/24 12:14:43;;;;;;;1.65;1.50;;;13.90;94.00;;;;;;5111837;28;21565;-78
2021/04/24 12:17:17;;;;;;;1.25;1.00;;;13.80;93.20;;;;;;5112581;28;20263;-78
2021/04/24 12:19:44;;;;;;;1.25;1.15;;;13.80;94.10;;;;;;5096110;28;20248;-79
2021/04/24 12:22:15;;;;;;;1.92;0.90;;;13.80;93.30;;;;;;5112764;27;20192;-78
2021/04/24 12:25:01;;;;;;;3.00;1.20;;;13.60;93.70;;;;;;5092928;28;20639;-78
2021/04/24 12:27:40;;;;;;;1.30;1.08;;;13.30;94.70;;;;;;5111974;27;20204;-78
2021/04/24 12:30:27;;;;;;;2.20;1.17;;;13.30;94.00;;;;;;5110783;27;20196;-78
2021/04/24 12:33:06;;;;;;;1.63;1.17;;;13.20;94.90;;;;;;5112926;27;20179;-77
2021/04/24 12:35:34;;;;;;;1.55;1.17;;;13.50;94.10;;;;;;5093383;28;20194;-79
2021/04/24 12:38:13;;;;;;;2.15;1.05;;;13.70;94.60;;;;;;5112573;28;20181;-78
2021/04/24 12:40:41;;;;;;;1.70;1.05;;;13.80;92.60;;;;;;5110300;28;20754;-79
2021/04/24 12:43:17;;;;;;;1.35;1.02;;;13.50;91.90;;;;;;5110475;27;20184;-77
2021/04/24 12:45:46;;;;;;;1.67;1.27;;;13.20;92.70;;;;;;5093673;28;20597;-80
2021/04/24 12:48:14;;;;;;;2.45;1.35;;;13.30;93.00;;;;;;5111966;28;20188;-78
2021/04/24 12:50:41;;;;;;;5.05;2.55;;;13.60;93.20;;;;;;5110874;28;20212;-79
2021/04/24 12:53:12;;;;;;;2.80;2.05;;;14.10;92.80;;;;;;5093265;27;20191;-79
2021/04/24 12:55:43;;;;;;;2.08;1.73;;;14.30;91.80;;;;;;5110848;28;20195;-78
2021/04/24 12:58:11;;;;;;;3.30;1.88;;;14.10;91.20;;;;;;5111988;27;20191;-79